Time;durP1;ratioP1;P1;durP2;ratioP2;P2;SDS_P1;SDS_P2;PMS_P1;PMS_P2;Temp;Humidity;BMP_temperature;BMP_pressure;BME280_temperature;BME280_humidity;BME280_pressure;Samples;Min_cycle;Max_cycle;Signal;HPM_P1;HPM_P2
2020/12/25 20:12:12;;;;;;;13.57;4.55;;;19.30;55.40;;;;;;5091028;28;20390;-47
2020/12/25 20:14:39;;;;;;;24.00;5.05;;;19.20;56.50;;;;;;5091467;28;20113;-48
2020/12/25 20:17:05;;;;;;;21.65;4.95;;;19.30;56.20;;;;;;5091068;28;20506;-48
2020/12/25 20:19:32;;;;;;;22.38;5.35;;;19.50;56.00;;;;;;5091265;28;20024;-48
2020/12/25 20:21:58;;;;;;;28.35;5.15;;;19.70;55.90;;;;;;5086311;28;20473;-47
2020/12/25 20:24:25;;;;;;;21.33;4.75;;;19.80;55.40;;;;;;5071069;28;20028;-47
2020/12/25 20:26:51;;;;;;;22.60;4.88;;;19.90;55.00;;;;;;5070687;28;20032;-48
2020/12/25 20:29:18;;;;;;;16.27;4.57;;;20.10;55.00;;;;;;5070969;28;20088;-48
2020/12/25 20:31:47;;;;;;;24.55;4.97;;;20.20;54.50;;;;;;5070736;28;20039;-48
2020/12/25 20:34:13;;;;;;;18.80;4.78;;;20.30;54.40;;;;;;5069395;28;20029;-48
2020/12/25 20:36:40;;;;;;;28.10;5.90;;;20.40;54.10;;;;;;5069759;28;20043;-48
2020/12/25 20:39:06;;;;;;;19.80;4.90;;;20.60;53.80;;;;;;5070672;28;20025;-53
2020/12/25 20:41:33;;;;;;;28.83;5.00;;;20.80;53.60;;;;;;5070859;28;20029;-46
2020/12/25 20:43:59;;;;;;;16.92;4.38;;;20.90;53.10;;;;;;5070378;28;20491;-49
2020/12/25 20:46:27;;;;;;;24.80;4.35;;;21.20;53.00;;;;;;5070180;28;20385;-49
2020/12/25 20:48:56;;;;;;;17.85;5.05;;;21.30;52.50;;;;;;5070438;28;20029;-49
2020/12/25 20:51:24;;;;;;;20.38;4.68;;;21.60;52.20;;;;;;5070369;28;20037;-49
2020/12/25 20:53:51;;;;;;;20.33;4.25;;;21.80;51.80;;;;;;5070075;28;20110;-49
2020/12/25 20:56:19;;;;;;;18.35;4.32;;;22.00;51.40;;;;;;5070129;28;20477;-49
2020/12/25 20:58:46;;;;;;;16.15;4.05;;;22.20;50.90;;;;;;5069378;28;20375;-49
2020/12/25 21:01:13;;;;;;;16.83;5.07;;;22.40;50.50;;;;;;5070141;28;20029;-50
2020/12/25 21:03:40;;;;;;;14.63;3.50;;;22.60;50.20;;;;;;5070176;28;20029;-50
2020/12/25 21:06:07;;;;;;;14.75;4.13;;;22.80;49.80;;;;;;5070221;28;20024;-50
2020/12/25 21:08:34;;;;;;;17.38;3.67;;;22.90;49.50;;;;;;5070425;28;20021;-49
2020/12/25 21:11:00;;;;;;;9.27;3.70;;;23.10;49.30;;;;;;5069911;28;20381;-49
2020/12/25 21:13:28;;;;;;;13.85;3.83;;;23.20;48.90;;;;;;5070056;28;20031;-49
2020/12/25 21:15:55;;;;;;;13.70;3.38;;;23.40;48.60;;;;;;5070166;28;20028;-49
2020/12/25 21:18:24;;;;;;;9.77;3.30;;;23.50;48.30;;;;;;5069883;28;20174;-49
2020/12/25 21:20:55;;;;;;;13.45;3.78;;;23.60;48.20;;;;;;5069769;28;20033;-49
2020/12/25 21:23:22;;;;;;;6.22;2.67;;;23.70;47.80;;;;;;5057596;28;20025;-49
2020/12/25 21:25:48;;;;;;;6.00;2.75;;;23.80;47.70;;;;;;5056590;28;20471;-49
2020/12/25 21:28:15;;;;;;;12.63;3.30;;;23.80;47.40;;;;;;5056733;28;20029;-49
2020/12/25 21:30:41;;;;;;;14.02;3.83;;;23.90;47.30;;;;;;5056407;28;20063;-49
2020/12/25 21:33:08;;;;;;;9.65;2.95;;;23.90;47.10;;;;;;5056702;28;20033;-49
2020/12/25 21:35:35;;;;;;;9.95;3.60;;;24.00;47.10;;;;;;5056106;28;20029;-48
2020/12/25 21:38:01;;;;;;;11.45;3.53;;;24.00;47.20;;;;;;5056311;28;20376;-49
2020/12/25 21:40:28;;;;;;;12.48;3.33;;;24.00;47.00;;;;;;5055765;28;20033;-49
2020/12/25 21:42:55;;;;;;;11.88;3.00;;;24.00;46.80;;;;;;5055080;28;20428;-49
2020/12/25 21:45:22;;;;;;;14.27;3.17;;;23.90;46.70;;;;;;5055981;28;20476;-49
2020/12/25 21:47:48;;;;;;;10.02;3.13;;;24.00;46.80;;;;;;5056118;28;20036;-49
2020/12/25 21:50:15;;;;;;;18.88;4.70;;;23.90;46.70;;;;;;5055247;28;20444;-48
2020/12/25 21:52:42;;;;;;;22.67;4.68;;;23.90;47.00;;;;;;5055969;28;20028;-49
2020/12/25 21:55:08;;;;;;;13.70;4.05;;;23.90;47.20;;;;;;5055964;28;20044;-49
2020/12/25 21:57:35;;;;;;;16.20;3.65;;;23.80;47.20;;;;;;5055885;28;20104;-49
2020/12/25 22:00:02;;;;;;;16.67;3.60;;;23.80;47.30;;;;;;5055893;28;20021;-48
2020/12/25 22:02:28;;;;;;;18.30;3.60;;;23.90;47.30;;;;;;5055897;28;20103;-49
2020/12/25 22:04:55;;;;;;;16.77;3.30;;;23.80;47.20;;;;;;5055866;28;20032;-49
2020/12/25 22:07:21;;;;;;;17.10;3.63;;;23.80;47.20;;;;;;5055801;28;20025;-49
2020/12/25 22:09:48;;;;;;;12.05;3.17;;;23.90;47.30;;;;;;5055511;28;20020;-49
2020/12/25 22:12:14;;;;;;;48.28;6.85;;;23.80;47.20;;;;;;5055811;28;20040;-49
2020/12/25 22:14:41;;;;;;;396.25;97.65;;;23.80;47.40;;;;;;5055410;28;20102;-49
2020/12/25 22:17:07;;;;;;;658.90;231.13;;;23.80;47.40;;;;;;5055465;28;20033;-49
2020/12/25 22:19:34;;;;;;;496.00;147.50;;;23.80;47.70;;;;;;5055225;28;20432;-49
2020/12/25 22:22:04;;;;;;;429.33;125.60;;;23.80;47.80;;;;;;5055982;28;20059;-49
2020/12/25 22:24:30;;;;;;;430.77;122.60;;;23.80;47.80;;;;;;5055125;28;20025;-47
2020/12/25 22:26:57;;;;;;;707.55;213.75;;;23.80;47.90;;;;;;5055352;28;20078;-47
2020/12/25 22:29:23;;;;;;;596.42;192.45;;;23.80;48.00;;;;;;5055161;28;20029;-48
2020/12/25 22:31:50;;;;;;;610.50;192.23;;;23.80;48.10;;;;;;5055217;28;20029;-48
2020/12/25 22:34:18;;;;;;;530.88;155.38;;;23.80;48.10;;;;;;5054162;28;20036;-48
2020/12/25 22:36:44;;;;;;;520.38;148.18;;;23.80;48.10;;;;;;5054779;28;20033;-47
2020/12/25 22:39:11;;;;;;;484.60;145.93;;;23.80;48.00;;;;;;5055055;28;20059;-47
2020/12/25 22:41:37;;;;;;;505.63;147.93;;;23.80;48.00;;;;;;5055052;28;20029;-47
2020/12/25 22:44:04;;;;;;;465.23;133.85;;;23.80;47.90;;;;;;5054737;28;20112;-47
2020/12/25 22:46:36;;;;;;;432.70;124.25;;;23.80;47.90;;;;;;5055071;28;20025;-47
2020/12/25 22:49:05;;;;;;;414.58;119.07;;;23.80;47.90;;;;;;5054198;28;20086;-47
2020/12/25 22:51:31;;;;;;;419.67;124.05;;;23.80;47.90;;;;;;5054822;28;20505;-47
2020/12/25 22:53:58;;;;;;;393.35;112.85;;;23.80;47.90;;;;;;5054907;28;20032;-47
2020/12/25 22:56:26;;;;;;;373.33;111.22;;;23.80;47.90;;;;;;5054774;28;20032;-47
2020/12/25 22:58:54;;;;;;;366.23;110.70;;;23.80;47.80;;;;;;5054863;28;20028;-47
2020/12/25 23:01:21;;;;;;;333.00;96.55;;;23.90;47.80;;;;;;5054790;28;20094;-47
2020/12/25 23:03:48;;;;;;;362.00;108.15;;;23.90;47.90;;;;;;5054774;28;20025;-47
2020/12/25 23:06:15;;;;;;;329.95;95.30;;;23.90;47.80;;;;;;5054354;28;20025;-47
2020/12/25 23:08:42;;;;;;;588.63;195.68;;;23.90;47.80;;;;;;5054508;28;20079;-48
2020/12/25 23:11:08;;;;;;;722.45;264.50;;;23.90;47.70;;;;;;5054652;28;20143;-48
2020/12/25 23:13:36;;;;;;;591.78;195.93;;;23.90;47.80;;;;;;5054468;28;20025;-48
2020/12/25 23:16:11;;;;;;;538.88;172.52;;;23.90;47.70;;;;;;5053167;28;20423;-48
2020/12/25 23:18:38;;;;;;;530.53;169.48;;;23.90;47.60;;;;;;5055272;28;20035;-48
2020/12/25 23:21:10;;;;;;;513.30;157.05;;;23.90;47.60;;;;;;5053804;28;20029;-48
2020/12/25 23:23:38;;;;;;;520.13;166.00;;;23.90;47.70;;;;;;5046130;28;20119;-47
2020/12/25 23:26:10;;;;;;;458.48;146.43;;;23.90;47.60;;;;;;5054194;28;20036;-48
2020/12/25 23:28:37;;;;;;;443.73;136.07;;;23.90;47.70;;;;;;5049716;28;20022;-48
2020/12/25 23:31:04;;;;;;;440.63;142.27;;;23.90;47.70;;;;;;5040807;28;20059;-48
2020/12/25 23:33:31;;;;;;;405.98;118.28;;;23.80;47.60;;;;;;5054208;28;20029;-48
2020/12/25 23:35:58;;;;;;;403.38;125.18;;;23.90;47.80;;;;;;5054167;28;20036;-48
2020/12/25 23:38:25;;;;;;;406.27;122.45;;;23.80;47.70;;;;;;5048703;28;20032;-48
2020/12/25 23:40:51;;;;;;;384.27;116.82;;;23.80;47.70;;;;;;5052058;28;20025;-50
2020/12/25 23:43:18;;;;;;;394.63;116.70;;;23.80;47.70;;;;;;5052153;28;20020;-48
2020/12/25 23:45:45;;;;;;;337.73;98.43;;;23.90;47.70;;;;;;5052901;28;20021;-48
2020/12/25 23:48:11;;;;;;;348.63;105.35;;;23.80;47.70;;;;;;5053773;28;20025;-49
2020/12/25 23:50:38;;;;;;;414.73;121.68;;;23.80;47.70;;;;;;5053576;28;20025;-48
2020/12/25 23:53:04;;;;;;;479.00;143.30;;;23.80;47.80;;;;;;5053907;28;20029;-48
2020/12/25 23:55:31;;;;;;;473.30;154.82;;;23.80;48.00;;;;;;5053846;28;20036;-48
2020/12/25 23:57:57;;;;;;;404.70;121.05;;;23.70;48.00;;;;;;5053853;28;20524;-48
